Time;durP1;ratioP1;P1;durP2;ratioP2;P2;SDS_P1;SDS_P2;PMS_P1;PMS_P2;Temp;Humidity;BMP_temperature;BMP_pressure;BME280_temperature;BME280_humidity;BME280_pressure;Samples;Min_cycle;Max_cycle;Signal;HPM_P1;HPM_P2
2021/12/19 00:01:05;;;;;;;15.60;10.65;;;;;;;9.13;76.33;102547.28;6165260;23;20091;-76
2021/12/19 00:09:31;;;;;;;13.93;9.98;;;;;;;9.17;75.38;102537.63;6193341;23;20031;-76
2021/12/19 00:12:06;;;;;;;14.88;10.05;;;;;;;9.05;75.99;102518.28;6185408;23;20083;-79
2021/12/19 00:14:32;;;;;;;11.75;8.85;;;;;;;9.01;76.30;102506.06;6190982;23;19997;-75
2021/12/19 00:16:57;;;;;;;10.85;8.27;;;;;;;9.03;76.03;102509.47;6166101;23;20008;-74
2021/12/19 00:19:25;;;;;;;13.55;9.48;;;;;;;9.06;76.35;102519.97;6165881;23;20088;-75
2021/12/19 00:21:56;;;;;;;9.70;8.80;;;;;;;9.07;76.36;102516.19;6166907;23;20040;-75
2021/12/19 00:24:31;;;;;;;8.80;7.93;;;;;;;9.22;76.33;102527.78;6166063;23;20028;-73
2021/12/19 00:26:56;;;;;;;15.18;10.52;;;;;;;9.08;76.07;102506.94;6165548;23;20036;-74
2021/12/19 00:29:31;;;;;;;14.05;9.90;;;;;;;9.18;76.16;102529.22;6140647;23;20012;-75
2021/12/19 00:31:56;;;;;;;16.30;11.23;;;;;;;9.11;75.86;102513.88;6190627;23;20016;-75
2021/12/19 00:37:41;;;;;;;;;;;;;;;;;;;;;
2021/12/19 00:40:10;;;;;;;11.65;8.98;;;;;;;8.99;75.47;102502.72;6138535;23;20474;-72
2021/12/19 00:43:31;;;;;;;;;;;;;;;;;;;;;
2021/12/19 00:46:16;;;;;;;;;;;;;;;9.18;75.50;102515.56;6163025;23;20075;-78
2021/12/19 00:49:00;;;;;;;8.65;7.82;;;;;;;9.12;75.45;102491.84;6127213;23;19904;-78
2021/12/19 00:51:33;;;;;;;8.15;7.32;;;;;;;9.03;75.36;102476.72;6166117;23;20324;-78
2021/12/19 00:54:04;;;;;;;10.93;7.82;;;;;;;9.22;75.83;102502.38;6161629;23;20064;-78
2021/12/19 00:56:30;;;;;;;6.88;6.35;;;;;;;9.16;75.46;102476.72;6164538;23;20029;-78
2021/12/19 01:03:22;;;;;;;12.18;9.07;;;;;;;9.37;75.64;102488.53;6127736;23;20028;-78
2021/12/19 01:06:00;;;;;;;;;;;;;;;;;;;;;
2021/12/19 01:08:31;;;;;;;11.80;9.77;;;;;;;9.22;74.95;102470.44;6132930;23;20066;-77
2021/12/19 01:14:34;;;;;;;8.52;7.68;;;;;;;9.35;75.36;102479.72;6100657;23;20030;-75
2021/12/19 01:17:08;;;;;;;5.78;5.40;;;;;;;9.30;75.40;102461.25;6160419;23;20308;-73
2021/12/19 01:19:45;;;;;;;6.03;5.57;;;;;;;9.39;75.13;102470.06;6192177;23;20086;-74
2021/12/19 01:22:12;;;;;;;6.38;5.68;;;;;;;9.40;75.07;102469.00;6217669;23;20498;-72
2021/12/19 01:24:38;;;;;;;4.95;4.65;;;;;;;9.33;75.33;102459.97;6227015;23;20060;-72
2021/12/19 01:27:07;;;;;;;7.28;6.78;;;;;;;9.32;74.97;102461.84;6213858;23;20019;-72
2021/12/19 01:29:33;;;;;;;9.10;7.25;;;;;;;9.35;74.82;102463.34;6217360;23;20400;-72
2021/12/19 01:32:01;;;;;;;7.43;6.68;;;;;;;9.35;74.62;102464.16;6217291;23;20071;-71
2021/12/19 01:34:31;;;;;;;13.32;8.68;;;;;;;9.33;75.35;102457.22;6220874;23;20491;-74
2021/12/19 01:37:04;;;;;;;11.30;7.00;;;;;;;9.41;75.09;102467.97;6218064;23;20004;-72
2021/12/19 01:39:32;;;;;;;6.40;5.80;;;;;;;9.28;74.81;102440.66;6215760;23;20024;-71
2021/12/19 01:42:08;;;;;;;;;;;;;;;;;;;;;
2021/12/19 01:44:37;;;;;;;7.95;6.80;;;;;;;9.37;74.76;102445.69;6221182;23;20036;-74
2021/12/19 01:47:03;;;;;;;10.75;7.88;;;;;;;9.42;75.26;102447.81;6220834;23;20108;-74
2021/12/19 01:49:29;;;;;;;14.68;9.02;;;;;;;9.48;74.94;102452.44;6220347;23;20024;-71
2021/12/19 01:51:55;;;;;;;7.70;6.88;;;;;;;9.47;74.54;102444.44;6221864;23;20054;-72
2021/12/19 01:54:26;;;;;;;11.15;7.53;;;;;;;9.49;74.74;102448.66;6219378;23;20001;-72
2021/12/19 01:57:01;;;;;;;7.88;7.07;;;;;;;9.44;74.78;102437.50;6219604;23;20007;-71
2021/12/19 01:59:26;;;;;;;7.15;6.45;;;;;;;9.46;75.02;102442.75;6220041;23;20023;-70
2021/12/19 02:01:54;;;;;;;9.07;6.20;;;;;;;9.57;75.05;102453.06;6218362;23;20021;-71
2021/12/19 02:04:30;;;;;;;12.63;6.90;;;;;;;9.51;75.04;102441.06;6216866;23;20011;-70
2021/12/19 02:06:57;;;;;;;11.85;7.25;;;;;;;9.59;75.07;102443.63;6221584;23;20012;-73
2021/12/19 02:09:24;;;;;;;12.20;8.10;;;;;;;9.52;74.93;102436.44;6219266;23;20008;-72
2021/12/19 02:11:53;;;;;;;13.68;9.27;;;;;;;9.49;74.90;102431.41;6214226;23;20004;-73
2021/12/19 02:14:20;;;;;;;18.15;9.73;;;;;;;9.56;74.57;102446.78;6216792;23;20091;-72
2021/12/19 02:16:48;;;;;;;11.00;8.13;;;;;;;9.61;74.60;102451.59;6220494;23;20035;-73
2021/12/19 02:19:18;;;;;;;14.45;7.65;;;;;;;9.57;74.88;102440.22;6219252;23;20003;-72
2021/12/19 02:21:46;;;;;;;9.05;6.25;;;;;;;9.67;74.33;102466.31;6218604;23;20011;-72
2021/12/19 02:24:15;;;;;;;12.50;8.65;;;;;;;9.65;74.58;102452.00;6218636;23;20095;-73
2021/12/19 02:26:44;;;;;;;11.05;8.30;;;;;;;9.52;74.58;102437.31;6218252;23;20019;-73
2021/12/19 02:29:17;;;;;;;10.85;7.40;;;;;;;9.58;74.32;102441.94;6217460;23;20005;-73
2021/12/19 02:32:24;;;;;;;8.63;7.25;;;;;;;9.59;74.49;102443.63;6194514;23;20039;-74
2021/12/19 02:34:51;;;;;;;;;;;;;;;9.63;74.04;102443.19;6194828;23;20008;-74
2021/12/19 02:49:31;;;;;;;;;;;;;;;;;;;;;
2021/12/19 02:51:57;;;;;;;7.95;7.15;;;;;;;9.48;74.04;102427.84;6223712;23;20028;-73
2021/12/19 02:54:44;;;;;;;6.97;5.40;;;;;;;9.44;73.64;102430.13;6221337;23;20005;-73
2021/12/19 02:57:18;;;;;;;8.48;6.70;;;;;;;9.44;74.05;102423.84;6218230;23;20001;-72
2021/12/19 03:00:25;;;;;;;6.35;5.80;;;;;;;9.40;74.60;102417.97;6219474;23;20032;-72
2021/12/19 03:02:53;;;;;;;8.10;6.25;;;;;;;9.28;74.49;102396.97;6219587;23;20004;-74
2021/12/19 03:05:37;;;;;;;;;;;;;;;;;;;;;
2021/12/19 03:08:06;;;;;;;7.63;5.53;;;;;;;9.44;74.69;102432.03;6222321;23;20036;-74
2021/12/19 03:13:37;;;;;;;5.55;4.72;;;;;;;9.41;74.41;102416.06;6232748;23;20005;-74
2021/12/19 03:18:58;;;;;;;7.68;6.28;;;;;;;9.43;73.83;102416.69;6224412;23;20015;-74
2021/12/19 03:21:25;;;;;;;8.85;7.15;;;;;;;9.36;73.95;102416.72;6221857;23;20008;-73
2021/12/19 03:23:53;;;;;;;6.53;5.07;;;;;;;9.34;74.14;102415.22;6171295;23;20032;-74
2021/12/19 03:33:06;;;;;;;6.15;5.20;;;;;;;9.12;74.53;102399.03;6220689;23;20370;-71
2021/12/19 03:39:04;;;;;;;5.30;4.80;;;;;;;9.17;74.58;102402.00;6220474;23;20048;-73
2021/12/19 03:44:59;;;;;;;6.65;5.38;;;;;;;9.09;74.71;102388.53;6218765;23;20016;-72
2021/12/19 03:47:30;;;;;;;5.13;4.72;;;;;;;9.07;74.51;102379.72;6223826;23;19997;-75
2021/12/19 03:49:56;;;;;;;4.55;4.15;;;;;;;9.07;74.24;102371.53;6223529;23;20009;-77
2021/12/19 03:52:31;;;;;;;6.70;5.22;;;;;;;9.10;74.87;102365.66;6170978;23;20024;-76
2021/12/19 03:54:57;;;;;;;5.68;5.18;;;;;;;9.17;74.83;102379.31;6222856;23;20001;-76
2021/12/19 03:57:22;;;;;;;5.80;5.38;;;;;;;9.09;74.38;102366.69;6220024;23;20011;-78
2021/12/19 05:17:32;;;;;;;4.30;4.00;;;;;;;8.96;74.74;102306.66;6077819;23;20019;-76
2021/12/19 05:49:57;;;;;;;3.53;2.95;;;;;;;9.02;74.79;102308.53;6050936;23;20033;-75
2021/12/19 05:56:32;;;;;;;;;;;;;;;;;;;;;
2021/12/19 06:07:08;;;;;;;3.55;3.25;;;;;;;8.93;74.82;102299.72;6136080;23;20048;-74
2021/12/19 06:22:37;;;;;;;2.97;2.80;;;;;;;9.13;74.46;102307.94;6119550;23;20028;-75
2021/12/19 06:25:09;;;;;;;3.65;2.47;;;;;;;9.08;74.08;102308.56;6195767;23;20020;-73
2021/12/19 06:27:34;;;;;;;2.45;2.25;;;;;;;9.03;73.83;102302.03;6167111;23;20424;-74
2021/12/19 06:33:47;;;;;;;2.45;2.25;;;;;;;8.91;74.51;102299.09;6154792;23;20013;-74
2021/12/19 06:36:12;;;;;;;2.47;2.38;;;;;;;8.90;74.47;102297.41;6137472;23;20010;-76
2021/12/19 06:39:42;;;;;;;;;;;;;;;;;;;;;
2021/12/19 06:42:17;;;;;;;2.42;2.22;;;;;;;8.68;74.59;102267.59;6156685;23;20021;-78
2021/12/19 06:44:56;;;;;;;2.15;2.05;;;;;;;8.85;74.52;102292.59;6144830;23;20024;-79
2021/12/19 06:47:24;;;;;;;2.40;2.20;;;;;;;8.84;75.06;102290.91;6194806;23;20008;-77
2021/12/19 06:49:50;;;;;;;3.75;1.90;;;;;;;8.73;74.92;102269.69;6166712;23;20001;-78
2021/12/19 06:52:32;;;;;;;1.60;1.50;;;;;;;8.78;74.76;102277.28;6166556;23;20043;-77
2021/12/19 06:55:18;;;;;;;2.63;2.53;;;;;;;8.81;74.57;102290.50;6168039;23;20050;-77
2021/12/19 06:57:45;;;;;;;1.85;1.60;;;;;;;8.68;74.61;102277.69;6168726;23;20001;-77
2021/12/19 07:00:19;;;;;;;1.55;1.45;;;;;;;8.67;74.76;102276.00;6168896;23;20064;-80
2021/12/19 07:02:44;;;;;;;1.70;1.60;;;;;;;8.72;74.67;102295.31;6166032;23;20075;-78
2021/12/19 07:05:12;;;;;;;2.13;2.03;;;;;;;8.58;74.76;102272.63;6142830;23;20009;-78
2021/12/19 07:07:46;;;;;;;1.77;1.67;;;;;;;8.52;74.69;102259.81;6193875;23;20016;-77
2021/12/19 07:10:21;;;;;;;2.13;2.03;;;;;;;8.56;75.60;102278.28;6167126;23;20009;-79
2021/12/19 07:13:01;;;;;;;2.28;2.17;;;;;;;8.56;74.87;102286.47;6164628;23;20015;-77
2021/12/19 07:15:51;;;;;;;1.95;1.85;;;;;;;8.37;74.74;102263.53;6166150;23;20436;-80
2021/12/19 07:18:25;;;;;;;1.90;1.80;;;;;;;8.53;75.04;102292.34;6192485;23;20522;-76
2021/12/19 07:21:00;;;;;;;1.63;1.52;;;;;;;8.32;74.65;102267.94;6165558;23;20047;-77
2021/12/19 07:23:27;;;;;;;2.00;1.90;;;;;;;8.35;74.86;102282.00;6221687;23;20000;-76
2021/12/19 07:25:53;;;;;;;1.30;1.20;;;;;;;8.34;75.03;102282.19;6193785;23;20039;-77
2021/12/19 07:28:19;;;;;;;1.65;1.55;;;;;;;8.38;75.10;102295.22;6196440;23;20423;-77
2021/12/19 07:30:57;;;;;;;1.20;1.10;;;;;;;8.38;75.30;102289.75;6216835;23;20072;-76
2021/12/19 07:33:23;;;;;;;1.77;1.67;;;;;;;8.30;75.27;102278.22;6170040;23;20017;-76
2021/12/19 07:35:50;;;;;;;1.75;1.65;;;;;;;8.27;75.33;102275.91;6195834;23;20014;-75
2021/12/19 07:38:26;;;;;;;1.63;1.52;;;;;;;8.36;75.01;102291.84;6220499;23;20039;-75
2021/12/19 07:40:54;;;;;;;1.30;1.20;;;;;;;8.34;75.32;102287.66;6220775;23;20036;-76
2021/12/19 07:43:22;;;;;;;0.93;0.88;;;;;;;8.29;74.76;102285.53;6194794;23;20092;-75
2021/12/19 07:45:48;;;;;;;2.75;1.40;;;;;;;8.31;75.16;102285.31;6226202;23;20015;-74
2021/12/19 07:48:13;;;;;;;1.52;1.42;;;;;;;8.27;75.34;102281.34;6226782;23;20087;-77
2021/12/19 07:50:39;;;;;;;2.05;1.67;;;;;;;8.18;75.39;102267.88;6195302;23;20008;-76
2021/12/19 07:53:15;;;;;;;1.42;1.33;;;;;;;8.23;75.35;102271.88;6223227;23;20011;-78
2021/12/19 07:56:46;;;;;;;;;;;;;;;;;;;;;
2021/12/19 08:00:00;;;;;;;;;;;;;;;;;;;;;
2021/12/19 08:05:26;;;;;;;1.30;1.20;;;;;;;8.26;74.93;102287.84;6205386;23;20000;-75
2021/12/19 08:08:10;;;;;;;1.02;1.02;;;;;;;8.25;75.06;102277.97;6177898;23;20016;-77
2021/12/19 08:13:25;;;;;;;0.73;0.73;;;;;;;8.28;75.35;102281.13;6204406;23;20038;-78
2021/12/19 08:15:53;;;;;;;0.65;0.65;;;;;;;8.14;75.04;102261.16;6225743;23;20011;-78
2021/12/19 08:18:31;;;;;;;;;;;;;;;;;;;;;
2021/12/19 08:21:09;;;;;;;0.52;0.40;;;;;;;8.29;75.69;102281.97;6180435;23;20143;-79
2021/12/19 08:24:12;;;;;;;;;;;;;;;;;;;;;
2021/12/19 08:26:42;;;;;;;0.93;0.93;;;;;;;8.27;75.48;102259.53;6227039;23;20480;-78
2021/12/19 08:29:20;;;;;;;;;;;;;;;;;;;;;
2021/12/19 08:31:50;;;;;;;1.30;1.20;;;;;;;8.42;75.34;102282.00;6220694;23;20028;-80
2021/12/19 08:34:28;;;;;;;1.17;1.17;;;;;;;8.32;75.05;102260.59;6176022;23;20008;-77
2021/12/19 08:37:05;;;;;;;1.50;1.40;;;;;;;8.30;74.92;102268.13;6177175;23;20024;-77
2021/12/19 08:40:00;;;;;;;1.40;1.30;;;;;;;8.40;75.03;102286.81;6200175;23;20080;-77
2021/12/19 08:42:58;;;;;;;0.82;0.82;;;;;;;8.09;74.96;102241.88;6179121;23;20028;-76
2021/12/19 08:45:28;;;;;;;;;;;;;;;;;;;;;
2021/12/19 08:48:17;;;;;;;1.23;1.13;;;;;;;8.12;74.76;102257.81;6201287;23;20032;-76
2021/12/19 08:51:26;;;;;;;0.70;0.70;;;;;;;7.94;75.20;102231.13;6224040;23;20005;-72
2021/12/19 08:54:11;;;;;;;0.68;0.52;;;;;;;8.11;75.46;102260.75;6193868;23;20000;-72
2021/12/19 08:57:02;;;;;;;1.15;0.55;;;;;;;8.00;75.44;102243.09;6219461;23;20005;-70
2021/12/19 08:59:37;;;;;;;0.38;0.38;;;;;;;7.96;75.17;102239.94;6217098;23;20023;-71
2021/12/19 09:02:11;;;;;;;0.25;0.25;;;;;;;8.23;75.60;102274.63;6218702;23;20012;-72
2021/12/19 09:04:57;;;;;;;0.50;0.50;;;;;;;8.21;75.32;102278.38;6219393;23;20004;-72
2021/12/19 09:07:28;;;;;;;0.88;0.88;;;;;;;8.16;75.45;102280.91;6218626;23;20535;-74
2021/12/19 09:09:53;;;;;;;1.58;0.82;;;;;;;8.03;75.46;102264.47;6169705;23;20112;-72
2021/12/19 09:12:27;;;;;;;0.57;0.57;;;;;;;8.15;75.15;102284.66;6167887;23;20091;-74
2021/12/19 09:14:57;;;;;;;0.50;0.50;;;;;;;8.19;75.21;102285.94;6168564;23;20013;-74
2021/12/19 09:17:25;;;;;;;1.60;0.90;;;;;;;8.12;75.46;102274.16;6218572;23;20005;-72
2021/12/19 09:19:56;;;;;;;0.80;0.80;;;;;;;8.23;75.34;102290.97;6192740;23;20004;-73
2021/12/19 09:22:22;;;;;;;0.57;0.57;;;;;;;8.20;74.66;102292.22;6191722;23;20024;-71
2021/12/19 09:24:55;;;;;;;0.45;0.45;;;;;;;8.19;74.90;102291.38;6217750;23;20034;-71
2021/12/19 09:27:21;;;;;;;0.50;0.50;;;;;;;8.10;75.07;102281.69;6184035;23;20019;-72
2021/12/19 09:29:56;;;;;;;0.50;0.50;;;;;;;8.09;75.06;102268.28;6211540;23;20005;-73
2021/12/19 09:32:32;;;;;;;;;;;;;;;;;;;;;
2021/12/19 09:35:10;;;;;;;0.30;0.30;;;;;;;7.92;74.67;102262.34;6219307;23;19947;-73
2021/12/19 09:37:36;;;;;;;0.47;0.47;;;;;;;8.04;75.05;102277.06;6194851;23;20005;-74
2021/12/19 09:40:32;;;;;;;;;;;;;;;;;;;;;
2021/12/19 09:43:31;;;;;;;0.40;0.40;;;;;;;8.12;75.03;102274.16;6218216;23;20031;-74
2021/12/19 09:46:46;;;;;;;0.32;0.32;;;;;;;8.08;75.04;102259.25;6217465;23;20008;-74
2021/12/19 09:49:34;;;;;;;;;;;;;;;;;;;;;
2021/12/19 09:52:36;;;;;;;;;;;;;;;;;;;;;
2021/12/19 09:55:19;;;;;;;0.50;0.50;;;;;;;8.23;74.48;102250.91;6163506;23;20028;-74
2021/12/19 09:57:57;;;;;;;0.30;0.30;;;;;;;8.33;74.48;102269.63;6175708;23;20008;-74
2021/12/19 10:03:22;;;;;;;0.30;0.30;;;;;;;8.31;74.19;102260.78;6158926;23;20004;-74
2021/12/19 10:05:50;;;;;;;0.43;0.43;;;;;;;8.40;74.76;102259.56;6182975;23;20005;-73
2021/12/19 10:08:48;;;;;;;0.20;0.20;;;;;;;8.44;74.15;102246.34;6191362;23;20031;-72
2021/12/19 10:15:01;;;;;;;;;;;;;;;;;;;;;
2021/12/19 10:17:32;;;;;;;0.57;0.20;;;;;;;8.60;73.87;102266.97;6220739;23;20028;-76
2021/12/19 10:19:59;;;;;;;0.10;0.10;;;;;;;8.78;73.85;102275.38;6193437;23;20008;-74
2021/12/19 10:22:41;;;;;;;0.10;0.10;;;;;;;8.78;73.75;102264.47;6220156;23;20016;-75
2021/12/19 10:25:11;;;;;;;0.10;0.10;;;;;;;9.01;73.58;102277.69;6194858;23;20005;-73
2021/12/19 10:27:42;;;;;;;0.20;0.20;;;;;;;9.04;73.11;102271.00;6219881;23;20009;-71
2021/12/19 10:30:46;;;;;;;;;;;;;;;;;;;;;
2021/12/19 10:33:47;;;;;;;0.10;0.10;;;;;;;9.17;72.67;102270.13;6213084;23;20028;-71
2021/12/19 10:36:28;;;;;;;0.20;0.20;;;;;;;9.24;72.57;102262.75;6192036;23;20343;-71
2021/12/19 10:39:08;;;;;;;0.20;0.20;;;;;;;9.51;72.13;102271.75;6221376;23;20386;-73
2021/12/19 10:41:58;;;;;;;0.40;0.40;;;;;;;9.68;72.38;102271.28;6218011;23;20027;-69
2021/12/19 10:47:41;;;;;;;0.10;0.10;;;;;;;9.92;71.62;102248.69;6215790;23;20031;-73
2021/12/19 10:50:19;;;;;;;;;;;;;;;;;;;;;
2021/12/19 10:52:47;;;;;;;0.10;0.10;;;;;;;10.10;70.64;102248.00;6218303;23;20039;-75
2021/12/19 10:55:48;;;;;;;;;;;;;;;;;;;;;
2021/12/19 10:58:22;;;;;;;0.10;0.10;;;;;;;10.28;70.94;102239.06;6197949;23;20039;-72
2021/12/19 11:01:19;;;;;;;0.28;0.28;;;;;;;10.36;70.92;102226.22;6189856;23;20035;-71
2021/12/19 11:04:43;;;;;;;0.00;0.00;;;;;;;10.42;70.04;102233.53;6186755;23;20008;-70
2021/12/19 11:07:31;;;;;;;0.15;0.15;;;;;;;10.21;70.23;102213.66;6131426;23;20025;-75
2021/12/19 11:10:29;;;;;;;;;;;;;;;;;;;;;
2021/12/19 11:13:17;;;;;;;0.10;0.10;;;;;;;10.38;70.17;102235.88;6220392;23;20068;-77
2021/12/19 11:15:43;;;;;;;0.20;0.10;;;;;;;10.22;69.39;102209.88;6197973;23;20009;-74
2021/12/19 11:18:11;;;;;;;0.20;0.20;;;;;;;10.27;69.06;102210.03;6222081;23;20005;-74
2021/12/19 11:20:37;;;;;;;0.28;0.10;;;;;;;10.15;69.48;102209.06;6193143;23;20047;-74
2021/12/19 11:23:04;;;;;;;0.10;0.10;;;;;;;10.24;69.32;102221.41;6171557;23;20016;-71
2021/12/19 11:25:45;;;;;;;0.10;0.10;;;;;;;10.26;69.54;102202.88;6223185;23;20427;-73
2021/12/19 11:28:11;;;;;;;0.10;0.10;;;;;;;10.40;69.80;102194.63;6195078;23;20062;-73
2021/12/19 11:30:46;;;;;;;0.28;0.28;;;;;;;10.76;69.19;102212.22;6224508;23;20000;-72
2021/12/19 11:33:37;;;;;;;0.13;0.13;;;;;;;10.86;68.74;102196.13;6222693;23;20470;-71
2021/12/19 11:36:13;;;;;;;0.10;0.10;;;;;;;10.85;68.50;102188.16;6221944;23;20411;-73
2021/12/19 11:38:54;;;;;;;0.20;0.20;;;;;;;10.95;67.68;102205.75;6197993;23;20004;-73
2021/12/19 11:41:59;;;;;;;2.30;0.20;;;;;;;10.98;68.23;102188.88;6224867;23;20011;-73
2021/12/19 11:44:43;;;;;;;0.30;0.20;;;;;;;10.95;67.59;102170.16;6204948;23;20442;-72
2021/12/19 11:47:14;;;;;;;0.20;0.20;;;;;;;11.06;66.77;102178.69;6223971;23;20035;-71
2021/12/19 11:50:03;;;;;;;0.20;0.20;;;;;;;11.08;66.95;102180.16;6193347;23;20012;-71
2021/12/19 11:52:38;;;;;;;0.20;0.20;;;;;;;11.01;66.53;102182.13;6222707;23;20004;-72
2021/12/19 11:55:13;;;;;;;0.22;0.22;;;;;;;11.04;66.90;102175.34;6151113;23;20004;-76
2021/12/19 11:57:39;;;;;;;0.40;0.30;;;;;;;11.07;66.94;102180.34;6195536;22;20013;-76
2021/12/19 12:00:32;;;;;;;0.15;0.15;;;;;;;11.14;66.75;102175.63;6217037;23;20704;-76
2021/12/19 12:03:20;;;;;;;0.20;0.20;;;;;;;11.16;66.96;102174.34;6174862;23;20012;-75
2021/12/19 12:06:09;;;;;;;0.80;0.30;;;;;;;11.20;66.22;102166.53;6200488;23;20060;-75
2021/12/19 12:09:07;;;;;;;0.32;0.20;;;;;;;11.14;66.44;102153.75;6223806;23;20008;-72
2021/12/19 12:11:35;;;;;;;0.32;0.30;;;;;;;11.19;66.45;102156.66;6162436;23;20008;-73
2021/12/19 12:14:27;;;;;;;0.57;0.57;;;;;;;11.12;65.60;102144.94;6225816;23;20011;-73
2021/12/19 12:17:20;;;;;;;0.28;0.25;;;;;;;11.13;66.52;102146.59;6209803;23;20457;-76
2021/12/19 12:20:08;;;;;;;0.20;0.20;;;;;;;11.12;65.67;102139.44;6201535;23;20005;-76
2021/12/19 12:25:42;;;;;;;0.20;0.20;;;;;;;11.03;65.63;102089.63;6239557;23;20030;-77
2021/12/19 12:29:11;;;;;;;0.30;0.30;;;;;;;11.18;65.60;102100.19;6055792;23;20011;-77
2021/12/19 12:31:47;;;;;;;0.20;0.20;;;;;;;11.24;65.84;102098.44;6094730;23;20030;-74
2021/12/19 12:34:38;;;;;;;0.50;0.40;;;;;;;11.40;65.07;102121.63;6106708;23;20153;-78
2021/12/19 12:37:27;;;;;;;0.13;0.13;;;;;;;11.34;65.41;102105.03;6105677;23;20016;-74
2021/12/19 12:40:42;;;;;;;;;;;;;;;;;;;;;
2021/12/19 18:09:44;;;;;;;2.67;2.58;;;;;;;7.69;73.34;101904.06;6217698;22;20038;-77
2021/12/19 18:12:33;;;;;;;2.42;2.22;;;;;;;7.88;73.24;101934.22;6244034;22;20069;-76
2021/12/19 18:15:11;;;;;;;;;;;;;;;;;;;;;
2021/12/19 18:20:30;;;;;;;1.95;1.85;;;;;;;7.61;73.85;101917.91;6291076;22;20030;-77
2021/12/19 18:23:06;;;;;;;1.92;1.85;;;;;;;7.45;73.18;101892.75;6289639;22;20425;-77
2021/12/19 18:25:49;;;;;;;1.88;1.77;;;;;;;7.55;73.55;101918.72;6264152;22;19996;-75
2021/12/19 18:28:20;;;;;;;3.60;1.73;;;;;;;7.48;73.23;101911.41;6263228;22;20014;-78
2021/12/19 18:30:54;;;;;;;1.98;1.88;;;;;;;7.34;73.09;101899.69;6261703;22;20039;-77
2021/12/19 18:33:25;;;;;;;3.13;1.65;;;;;;;7.25;72.78;101900.09;6260621;22;20000;-77
2021/12/19 18:36:00;;;;;;;2.70;2.60;;;;;;;7.22;73.21;101908.66;6236981;22;20000;-77
2021/12/19 18:38:30;;;;;;;2.47;2.28;;;;;;;7.15;72.94;101912.22;6287432;22;20053;-76
2021/12/19 18:57:39;;;;;;;1.90;1.80;;;;;;;6.95;73.22;101897.72;6054331;23;20280;-77
2021/12/19 19:00:11;;;;;;;3.22;3.03;;;;;;;6.98;73.38;101908.19;6228601;23;20000;-77
2021/12/19 19:02:55;;;;;;;2.40;2.30;;;;;;;6.88;72.78;101894.13;6254911;23;20064;-76
2021/12/19 19:05:43;;;;;;;;;;;;;;;;;;;;;
2021/12/19 19:08:54;;;;;;;3.03;2.92;;;;;;;6.98;72.58;101903.59;6235439;23;20038;-76
2021/12/19 19:11:20;;;;;;;2.67;2.58;;;;;;;6.94;72.96;101896.06;6229919;23;20020;-76
2021/12/19 19:13:48;;;;;;;4.18;3.88;;;;;;;6.93;73.54;101905.25;6229916;23;20008;-77
2021/12/19 19:16:15;;;;;;;3.55;3.35;;;;;;;6.85;73.42;101900.00;6285787;22;20032;-76
2021/12/19 19:22:16;;;;;;;2.53;2.42;;;;;;;6.79;73.51;101888.91;6262474;22;20032;-74
2021/12/19 19:24:45;;;;;;;3.63;3.42;;;;;;;6.80;73.09;101887.88;6285075;22;20003;-72
2021/12/19 19:27:30;;;;;;;3.00;2.75;;;;;;;6.90;73.17;101909.22;6207057;22;20003;-76
2021/12/19 19:30:01;;;;;;;3.47;3.25;;;;;;;6.85;73.81;101902.69;6259233;22;20014;-77
2021/12/19 19:36:16;;;;;;;2.42;2.33;;;;;;;6.60;73.47;101868.78;6110048;23;20009;-75
2021/12/19 19:39:03;;;;;;;;;;;;;;;;;;;;;
2021/12/19 19:44:26;;;;;;;3.85;3.65;;;;;;;6.63;73.28;101889.28;6181655;23;20045;-74
2021/12/19 19:49:48;;;;;;;3.00;2.80;;;;;;;6.62;73.63;101899.28;6260913;22;20329;-73
2021/12/19 19:52:17;;;;;;;3.13;2.92;;;;;;;6.54;73.99;101890.47;6258189;22;20004;-73
2021/12/19 19:55:12;;;;;;;3.10;2.92;;;;;;;6.46;74.07;101877.91;6257622;22;20004;-75
2021/12/19 20:01:04;;;;;;;4.80;4.20;;;;;;;6.59;74.10;101907.03;6255288;22;20059;-74
2021/12/19 20:03:31;;;;;;;3.88;3.67;;;;;;;6.53;73.91;101899.69;6286476;22;20004;-73
2021/12/19 20:06:06;;;;;;;3.28;3.17;;;;;;;6.53;73.80;101894.25;6257521;22;20103;-76
2021/12/19 20:08:34;;;;;;;3.88;3.67;;;;;;;6.45;73.69;101893.41;6257779;22;20014;-75
2021/12/19 20:11:00;;;;;;;3.03;2.92;;;;;;;6.37;73.72;101881.84;6258496;22;20106;-76
2021/12/19 20:17:28;;;;;;;;;;;;;;;;;;;;;
2021/12/19 20:20:50;;;;;;;;;;;;;;;;;;;;;
2021/12/19 20:23:29;;;;;;;3.33;3.20;;;;;;;6.23;74.47;101872.78;6174914;23;20021;-77
2021/12/19 20:26:01;;;;;;;3.83;3.63;;;;;;;6.37;73.50;101890.84;6194607;23;20024;-77
2021/12/19 20:28:27;;;;;;;4.70;3.60;;;;;;;6.42;74.31;101892.94;6249923;22;20012;-75
2021/12/19 20:31:01;;;;;;;3.58;3.38;;;;;;;6.20;74.34;101856.91;6262053;22;20014;-77
2021/12/19 20:34:04;;;;;;;3.63;3.42;;;;;;;6.28;73.70;101878.47;6261569;22;20436;-75
2021/12/19 20:36:49;;;;;;;4.18;3.85;;;;;;;6.23;73.60;101878.22;6135316;23;20060;-75
2021/12/19 20:39:35;;;;;;;;;;;;;;;;;;;;;
2021/12/19 20:42:32;;;;;;;;;;;;;;;;;;;;;
2021/12/19 20:45:50;;;;;;;4.13;3.92;;;;;;;6.22;74.64;101869.25;6264971;22;20481;-79
2021/12/19 20:48:18;;;;;;;4.22;4.03;;;;;;;6.16;74.43;101861.88;6221899;22;20018;-73
2021/12/19 20:50:49;;;;;;;3.58;3.28;;;;;;;6.21;74.05;101866.72;6285133;22;20000;-73
2021/12/19 20:53:15;;;;;;;3.15;3.05;;;;;;;6.25;74.17;101881.56;6234363;22;20003;-73
2021/12/19 20:55:46;;;;;;;3.78;3.58;;;;;;;6.21;73.79;101874.88;6256022;22;20041;-72
2021/12/19 20:58:11;;;;;;;3.97;3.78;;;;;;;6.24;73.61;101874.47;6285630;22;20007;-73
2021/12/19 21:00:47;;;;;;;4.53;4.20;;;;;;;6.18;74.17;101873.41;6284706;22;20011;-73
2021/12/19 21:03:19;;;;;;;4.00;3.80;;;;;;;6.11;74.21;101870.63;6287782;22;20003;-81
2021/12/19 21:05:45;;;;;;;4.25;4.03;;;;;;;6.04;74.14;101858.91;6288455;22;20003;-78
2021/12/19 21:08:16;;;;;;;4.72;4.35;;;;;;;6.10;73.56;101863.56;6260337;22;20033;-78
2021/12/19 21:10:41;;;;;;;5.60;5.30;;;;;;;5.94;73.76;101850.25;6249104;23;20032;-72
2021/12/19 21:13:19;;;;;;;4.05;3.75;;;;;;;6.01;74.19;101870.16;6253475;23;20027;-80
2021/12/19 21:21:28;;;;;;;;;;;;;;;;;;;;;
2021/12/19 21:24:41;;;;;;;5.00;4.70;;;;;;;5.98;73.67;101875.16;6264268;23;20003;-76
2021/12/19 21:27:15;;;;;;;4.50;4.30;;;;;;;5.85;74.70;101854.16;6226802;23;20517;-73
2021/12/19 21:29:42;;;;;;;4.18;3.88;;;;;;;5.77;74.63;101834.28;6257336;23;20314;-77
2021/12/19 21:32:16;;;;;;;4.40;3.97;;;;;;;5.99;74.63;101871.44;6231030;23;20056;-76
2021/12/19 21:40:58;;;;;;;6.57;5.95;;;;;;;5.72;73.60;101861.22;6253488;23;20079;-76
2021/12/19 21:44:05;;;;;;;;;;;;;;;;;;;;;
2021/12/19 21:46:23;;;;;;;4.45;4.15;;;;;;;5.46;74.02;101853.72;6248761;23;20015;-73
2021/12/19 21:49:14;;;;;;;4.00;3.80;;;;;;;5.39;73.48;101845.50;6252920;23;20008;-78
2021/12/19 21:51:42;;;;;;;3.72;3.45;;;;;;;5.30;74.37;101832.28;6251216;22;20335;-75
2021/12/19 21:54:08;;;;;;;4.15;3.95;;;;;;;5.24;73.86;101839.31;6253453;22;20062;-74
2021/12/19 21:56:39;;;;;;;4.18;3.97;;;;;;;5.36;74.14;101859.47;6251540;23;20385;-75
2021/12/19 21:59:06;;;;;;;4.93;4.63;;;;;;;5.15;74.58;101845.94;6254940;23;20027;-76
2021/12/19 22:01:41;;;;;;;3.88;3.67;;;;;;;5.05;74.02;101827.28;6254641;22;20148;-77
2021/12/19 22:07:20;;;;;;;3.30;3.10;;;;;;;5.20;74.69;101863.28;6244607;22;20004;-77
2021/12/19 22:09:48;;;;;;;2.45;2.35;;;;;;;5.27;74.46;101866.09;6253046;22;20018;-74
2021/12/19 22:15:28;;;;;;;3.83;3.63;;;;;;;5.47;75.18;101887.09;6257212;23;20139;-71
2021/12/19 22:18:17;;;;;;;;;;;;;;;;;;;;;
2021/12/19 22:20:50;;;;;;;3.38;3.17;;;;;;;5.45;75.25;101881.00;6244567;23;20079;-76
2021/12/19 22:23:23;;;;;;;3.63;3.33;;;;;;;5.37;74.23;101858.44;6249400;23;20706;-74
2021/12/19 22:25:53;;;;;;;3.55;3.35;;;;;;;5.50;74.66;101878.56;6255936;23;20011;-75
2021/12/19 22:28:33;;;;;;;3.20;3.10;;;;;;;5.44;75.04;101873.94;6231132;23;20220;-77
2021/12/19 22:31:26;;;;;;;3.78;3.58;;;;;;;5.55;74.62;101892.41;6255501;23;20385;-76
2021/12/19 22:34:30;;;;;;;;;;;;;;;;;;;;;
2021/12/19 22:37:03;;;;;;;3.78;3.58;;;;;;;5.44;74.82;101868.50;6258280;22;20004;-75
2021/12/19 22:39:40;;;;;;;;;;;;;;;;;;;;;
2021/12/19 22:42:12;;;;;;;2.78;2.67;;;;;;;5.42;74.50;101866.81;6250568;23;20019;-72
2021/12/19 22:44:49;;;;;;;2.00;1.90;;;;;;;5.52;75.21;101877.34;6251001;23;20011;-74
2021/12/19 22:47:14;;;;;;;1.90;1.80;;;;;;;5.65;74.44;101887.47;6223548;23;20031;-75
2021/12/19 22:49:40;;;;;;;2.03;1.92;;;;;;;5.69;75.26;101883.28;6245305;22;20004;-73
2021/12/19 22:52:06;;;;;;;2.00;1.90;;;;;;;5.69;75.08;101877.88;6246715;23;20011;-75
2021/12/19 22:54:34;;;;;;;1.98;1.88;;;;;;;5.80;75.76;101881.06;6224472;23;20015;-73